Time;durP1;ratioP1;P1;durP2;ratioP2;P2;SDS_P1;SDS_P2;PMS_P1;PMS_P2;Temp;Humidity;BMP_temperature;BMP_pressure;BME280_temperature;BME280_humidity;BME280_pressure;Samples;Min_cycle;Max_cycle;Signal;HPM_P1;HPM_P2
2024/01/28 00:01:40;;;;;;;12.27;8.03;;;;;;;1.80;100.00;151829.44;5074197;28;20460;-91
2024/01/28 00:04:07;;;;;;;12.00;8.60;;;;;;;1.79;100.00;151826.84;5100522;28;20491;-90
2024/01/28 00:06:33;;;;;;;14.33;9.70;;;;;;;1.79;100.00;151826.84;5108799;28;20448;-91
2024/01/28 00:09:00;;;;;;;12.83;9.07;;;;;;;1.76;100.00;151819.13;5070871;28;20460;-90
2024/01/28 00:11:26;;;;;;;10.60;7.70;;;;;;;1.75;100.00;151817.84;5072004;28;20464;-91
2024/01/28 00:13:54;;;;;;;9.33;7.07;;;;;;;1.76;100.00;151819.13;5077094;28;20941;-90
2024/01/28 00:16:21;;;;;;;10.67;7.67;;;;;;;1.78;100.00;151824.25;5105414;28;20468;-91
2024/01/28 00:18:48;;;;;;;11.90;8.97;;;;;;;1.79;100.00;151826.84;5073318;28;20448;-91
2024/01/28 00:21:14;;;;;;;10.63;7.30;;;;;;;1.80;100.00;151830.69;5069544;28;20506;-91
2024/01/28 00:23:41;;;;;;;11.73;8.20;;;;;;;1.80;100.00;151829.44;5072331;28;20468;-91
2024/01/28 00:26:07;;;;;;;14.60;9.00;;;;;;;1.78;100.00;151825.56;5074677;28;20432;-92
2024/01/28 00:28:34;;;;;;;15.63;9.10;;;;;;;1.76;100.00;151819.13;5074324;28;20464;-91
2024/01/28 00:31:02;;;;;;;14.20;9.50;;;;;;;1.74;100.00;151815.31;5089670;28;20452;-92
2024/01/28 00:33:28;;;;;;;12.13;8.73;;;;;;;1.71;100.00;151807.59;5089816;28;20466;-93
2024/01/28 00:35:55;;;;;;;13.60;8.63;;;;;;;1.73;100.00;151812.72;5073582;28;20985;-92
2024/01/28 00:38:21;;;;;;;9.87;8.00;;;;;;;1.72;100.00;151810.13;5071528;28;20445;-92
2024/01/28 00:40:48;;;;;;;12.80;7.47;;;;;;;1.63;100.00;151787.03;5074668;28;20464;-93
2024/01/28 00:43:14;;;;;;;9.80;8.47;;;;;;;1.63;100.00;151785.72;5072727;28;20449;-92
2024/01/28 00:45:41;;;;;;;12.80;8.13;;;;;;;1.62;100.00;151784.44;5090320;28;20475;-93
2024/01/28 00:48:09;;;;;;;13.07;7.80;;;;;;;1.67;100.00;151795.97;5087934;28;21005;-94
2024/01/28 00:50:35;;;;;;;9.60;7.30;;;;;;;1.65;100.00;151792.16;5092176;28;20489;-93
2024/01/28 00:53:02;;;;;;;8.77;7.60;;;;;;;1.63;100.00;151785.72;5099357;28;20970;-92
2024/01/28 00:55:31;;;;;;;11.40;7.63;;;;;;;1.64;100.00;151789.56;5083080;28;20445;-93
2024/01/28 00:57:58;;;;;;;10.40;8.53;;;;;;;1.69;100.00;151801.16;5075093;28;20516;-93
2024/01/28 01:00:25;;;;;;;11.13;7.90;;;;;;;1.73;100.00;151811.41;5072569;28;20429;-92
2024/01/28 01:02:52;;;;;;;8.90;7.20;;;;;;;1.73;100.00;151811.41;5091171;28;20449;-93
2024/01/28 01:05:19;;;;;;;8.17;7.00;;;;;;;1.72;100.00;151808.88;5092596;28;20436;-93
2024/01/28 01:07:46;;;;;;;10.47;6.93;;;;;;;1.74;100.00;151815.31;5092929;28;20512;-94
2024/01/28 01:10:13;;;;;;;8.10;6.63;;;;;;;1.71;100.00;151807.59;5075610;28;20445;-93
2024/01/28 01:12:40;;;;;;;10.37;7.40;;;;;;;1.72;100.00;151808.88;5089256;28;20457;-93
2024/01/28 01:15:07;;;;;;;11.70;9.00;;;;;;;1.69;100.00;151801.16;5090494;28;20525;-93
2024/01/28 01:17:34;;;;;;;10.07;7.97;;;;;;;1.64;100.00;151789.56;5056077;28;20481;-95
2024/01/28 01:20:01;;;;;;;9.57;7.37;;;;;;;1.64;100.00;151789.56;5065341;28;20451;-93
2024/01/28 01:22:29;;;;;;;9.07;7.10;;;;;;;1.64;100.00;151788.31;5077126;28;20433;-94
2024/01/28 01:24:56;;;;;;;8.47;6.57;;;;;;;1.63;100.00;151785.72;5081064;28;20930;-95
2024/01/28 01:27:23;;;;;;;8.57;6.70;;;;;;;1.63;100.00;151785.72;5080920;28;20424;-93
2024/01/28 01:29:50;;;;;;;8.43;7.37;;;;;;;1.61;100.00;151780.59;5081081;28;20563;-94
2024/01/28 01:32:17;;;;;;;12.30;7.17;;;;;;;1.60;100.00;151779.31;5097659;28;20467;-94
2024/01/28 01:34:43;;;;;;;8.80;7.33;;;;;;;1.61;100.00;151780.59;5080917;28;20527;-94
2024/01/28 01:37:10;;;;;;;9.87;6.97;;;;;;;1.62;100.00;151784.44;5080250;28;20471;-94
2024/01/28 01:39:38;;;;;;;9.27;7.23;;;;;;;1.61;100.00;151780.59;5080179;28;20466;-94
2024/01/28 01:42:05;;;;;;;8.30;7.07;;;;;;;1.57;100.00;151771.59;5080030;28;20462;-94
2024/01/28 01:44:32;;;;;;;11.70;7.37;;;;;;;1.54;100.00;151762.56;5094707;28;20436;-93
2024/01/28 01:46:59;;;;;;;9.93;6.97;;;;;;;1.52;100.00;151757.44;5086757;28;20505;-94
2024/01/28 01:49:26;;;;;;;11.20;7.23;;;;;;;1.47;100.00;151744.59;5079832;28;20817;-94
2024/01/28 01:51:53;;;;;;;10.67;7.00;;;;;;;1.47;100.00;151744.59;5080235;28;20945;-94
2024/01/28 01:54:19;;;;;;;9.47;7.03;;;;;;;1.44;100.00;151736.88;5060698;28;20452;-95
2024/01/28 01:56:48;;;;;;;9.53;6.83;;;;;;;1.42;100.00;151733.06;5076694;28;20468;-94
2024/01/28 01:59:15;;;;;;;10.03;7.40;;;;;;;1.39;100.00;151724.03;5078468;28;20452;-95
2024/01/28 02:01:43;;;;;;;11.43;9.50;;;;;;;1.39;100.00;151724.03;5061209;28;20502;-95
2024/01/28 02:04:11;;;;;;;9.13;7.20;;;;;;;1.37;100.00;151718.91;5060668;28;20464;-95
2024/01/28 02:06:38;;;;;;;7.70;6.90;;;;;;;1.37;100.00;151718.91;5061737;28;20472;-95
2024/01/28 02:09:06;;;;;;;8.73;6.63;;;;;;;1.38;100.00;151721.50;5069396;28;20976;-95
2024/01/28 02:11:35;;;;;;;9.33;7.43;;;;;;;1.34;100.00;151711.19;5081974;28;20511;-95
2024/01/28 02:14:03;;;;;;;7.30;6.33;;;;;;;1.34;100.00;151712.50;5187367;22;20537;-94
2024/01/28 02:16:30;;;;;;;8.50;7.40;;;;;;;1.32;100.00;151706.06;5037564;28;20877;-94
2024/01/28 02:18:56;;;;;;;9.10;6.87;;;;;;;1.30;100.00;151700.94;5037931;28;20505;-95
2024/01/28 02:21:23;;;;;;;11.30;8.20;;;;;;;1.31;100.00;151703.50;5020831;28;20438;-95
2024/01/28 02:23:51;;;;;;;10.57;7.80;;;;;;;1.32;100.00;151706.06;5054994;28;20855;-94
2024/01/28 02:26:17;;;;;;;8.97;7.17;;;;;;;1.28;100.00;151695.78;5037525;28;20866;-95
2024/01/28 02:28:44;;;;;;;10.53;8.47;;;;;;;1.26;100.00;151690.66;5020572;28;20447;-95
2024/01/28 02:31:10;;;;;;;12.07;8.03;;;;;;;1.18;100.00;151672.69;5037529;28;20526;-94
2024/01/28 02:33:37;;;;;;;14.53;8.60;;;;;;;1.14;100.00;151661.09;5057399;28;20439;-95
2024/01/28 02:36:04;;;;;;;9.80;7.47;;;;;;;1.13;100.00;151658.53;5057635;28;20478;-95
2024/01/28 02:38:30;;;;;;;10.57;8.20;;;;;;;1.10;100.00;151652.13;5022882;28;20843;-96
2024/01/28 02:40:59;;;;;;;14.07;10.27;;;;;;;1.07;100.00;151644.41;5023539;28;20435;-95
2024/01/28 02:43:25;;;;;;;11.37;8.50;;;;;;;1.06;100.00;151641.81;5037781;28;20462;-95
2024/01/28 02:45:52;;;;;;;11.77;8.40;;;;;;;1.08;100.00;151645.69;5053915;28;20447;-95
2024/01/28 02:48:18;;;;;;;11.63;8.80;;;;;;;1.10;100.00;151650.84;5058049;28;20485;-95
2024/01/28 02:50:45;;;;;;;9.97;8.13;;;;;;;1.12;100.00;151657.25;5059108;28;20469;-95
2024/01/28 02:53:11;;;;;;;14.37;9.07;;;;;;;1.11;100.00;151654.66;5036693;28;21003;-95
2024/01/28 02:55:38;;;;;;;11.37;7.60;;;;;;;1.14;100.00;151662.38;5036431;28;20449;-96
2024/01/28 02:58:06;;;;;;;12.13;7.97;;;;;;;1.11;100.00;151653.41;5036179;28;20478;-95
2024/01/28 03:00:35;;;;;;;13.90;8.50;;;;;;;1.09;100.00;151649.53;5037384;28;20780;-94
2024/01/28 03:03:02;;;;;;;9.83;7.70;;;;;;;1.09;100.00;151649.53;5036892;28;20953;-95
2024/01/28 03:05:29;;;;;;;10.37;6.97;;;;;;;1.09;100.00;151649.53;5054686;28;20514;-95
2024/01/28 03:07:56;;;;;;;12.17;8.00;;;;;;;1.10;100.00;151650.84;5054016;28;20542;-95
2024/01/28 03:10:22;;;;;;;12.70;6.90;;;;;;;1.08;100.00;151647.00;5054172;28;20450;-94
2024/01/28 03:12:49;;;;;;;11.00;7.00;;;;;;;1.08;100.00;151647.00;5052970;28;20546;-94
2024/01/28 03:15:18;;;;;;;7.80;6.93;;;;;;;1.09;100.00;151649.53;5035993;28;20481;-95
2024/01/28 03:17:44;;;;;;;9.70;6.80;;;;;;;1.06;100.00;151640.56;5035722;28;20487;-94
2024/01/28 03:20:11;;;;;;;8.27;6.40;;;;;;;1.06;100.00;151641.81;5035158;28;20447;-94
2024/01/28 03:22:39;;;;;;;10.23;7.77;;;;;;;1.06;100.00;151641.81;5035216;28;20465;-95
2024/01/28 03:25:07;;;;;;;10.90;7.47;;;;;;;1.06;100.00;151641.81;5035948;28;20446;-94
2024/01/28 03:27:33;;;;;;;10.10;7.50;;;;;;;1.04;100.00;151636.69;5018917;28;20446;-94
2024/01/28 03:30:00;;;;;;;9.93;7.23;;;;;;;1.07;100.00;151644.41;5034561;28;20467;-94
2024/01/28 03:32:28;;;;;;;10.33;7.40;;;;;;;1.10;100.00;151652.13;5034654;28;20443;-94
2024/01/28 03:34:55;;;;;;;12.00;8.07;;;;;;;1.09;100.00;151649.53;5018413;28;20546;-93
2024/01/28 03:37:22;;;;;;;10.27;7.43;;;;;;;1.12;100.00;151657.25;5018322;28;20505;-94
2024/01/28 03:39:48;;;;;;;12.80;7.87;;;;;;;1.14;100.00;151662.38;5034261;28;20439;-94
2024/01/28 03:42:15;;;;;;;9.10;7.30;;;;;;;1.09;100.00;151649.53;5035110;28;20493;-94
2024/01/28 03:44:42;;;;;;;15.30;8.97;;;;;;;1.02;100.00;151631.56;5018222;28;20451;-94
2024/01/28 03:47:09;;;;;;;10.20;7.73;;;;;;;0.95;100.00;151613.59;5034830;28;20546;-94
2024/01/28 03:49:37;;;;;;;13.93;8.83;;;;;;;0.88;100.00;151594.31;5034497;28;20472;-94
2024/01/28 03:52:04;;;;;;;11.63;9.27;;;;;;;0.83;100.00;151582.75;5034277;28;20520;-94
2024/01/28 03:54:31;;;;;;;13.27;8.90;;;;;;;0.84;100.00;151585.34;5034517;28;20538;-93
2024/01/28 03:56:57;;;;;;;12.70;8.20;;;;;;;0.87;100.00;151591.75;5034482;28;20513;-93
2024/01/28 03:59:24;;;;;;;12.90;9.17;;;;;;;0.87;100.00;151593.06;5017228;28;20439;-93
2024/01/28 04:01:50;;;;;;;11.00;9.37;;;;;;;0.85;100.00;151587.88;5046448;28;20446;-94
2024/01/28 04:04:17;;;;;;;11.83;8.53;;;;;;;0.86;100.00;151590.47;5050581;28;20446;-94
2024/01/28 04:06:46;;;;;;;15.20;8.17;;;;;;;0.85;100.00;151587.88;5033711;28;20432;-93
2024/01/28 04:09:13;;;;;;;12.87;9.47;;;;;;;0.83;100.00;151581.47;5050475;28;20805;-94
2024/01/28 04:11:40;;;;;;;11.30;7.80;;;;;;;0.80;100.00;151575.03;5034312;28;20568;-95
2024/01/28 04:14:06;;;;;;;12.07;9.30;;;;;;;0.77;100.00;151567.34;5033767;28;20574;-94
2024/01/28 04:16:34;;;;;;;11.57;9.17;;;;;;;0.74;100.00;151558.38;5033911;28;20435;-94
2024/01/28 04:19:00;;;;;;;11.30;8.80;;;;;;;0.70;100.00;151549.38;5033458;28;20459;-95
2024/01/28 04:21:28;;;;;;;11.43;9.60;;;;;;;0.70;100.00;151549.38;5039618;28;20451;-95
2024/01/28 04:23:57;;;;;;;13.73;9.70;;;;;;;0.68;100.00;151544.25;5039295;28;20443;-95
2024/01/28 04:26:24;;;;;;;14.17;9.60;;;;;;;0.65;100.00;151535.25;5025828;28;20786;-94
2024/01/28 04:28:50;;;;;;;11.97;8.07;;;;;;;0.66;100.00;151537.84;5025999;28;20458;-95
2024/01/28 04:31:26;;;;;;;12.33;9.60;;;;;;;0.64;100.00;151533.94;5024804;28;20451;-95
2024/01/28 04:33:54;;;;;;;12.47;8.50;;;;;;;0.63;100.00;151530.13;5023739;28;20430;-94
2024/01/28 04:36:21;;;;;;;11.77;8.73;;;;;;;0.63;100.00;151531.41;5022756;28;20504;-93
2024/01/28 04:38:54;;;;;;;11.97;8.80;;;;;;;0.62;100.00;151528.81;5021494;28;20533;-94
2024/01/28 04:41:23;;;;;;;13.17;8.67;;;;;;;0.64;100.00;151532.72;5017644;28;20454;-93
2024/01/28 04:43:49;;;;;;;14.13;9.70;;;;;;;0.58;100.00;151519.81;5017521;28;20530;-95
2024/01/28 04:46:17;;;;;;;13.60;8.70;;;;;;;0.50;100.00;151498.03;5033875;28;20434;-95
2024/01/28 04:48:44;;;;;;;9.80;7.63;;;;;;;0.45;100.00;151485.22;5017157;28;20533;-95
2024/01/28 04:51:11;;;;;;;13.80;8.60;;;;;;;0.41;100.00;151474.91;5016591;28;20463;-93
2024/01/28 04:53:38;;;;;;;11.30;9.00;;;;;;;0.35;100.00;151460.78;5017255;28;20439;-93
2024/01/28 04:56:05;;;;;;;11.97;8.33;;;;;;;0.34;100.00;151456.97;5021375;28;20443;-93
2024/01/28 04:58:33;;;;;;;11.93;8.40;;;;;;;0.34;100.00;151456.97;5021418;28;20501;-93
2024/01/28 05:01:00;;;;;;;10.97;8.47;;;;;;;0.39;100.00;151469.78;5020859;28;20431;-93
2024/01/28 05:03:27;;;;;;;11.80;9.00;;;;;;;0.45;100.00;151485.22;5021261;28;20505;-93
2024/01/28 05:05:54;;;;;;;12.33;8.90;;;;;;;0.51;100.00;151500.56;5020415;28;20451;-93
2024/01/28 05:08:21;;;;;;;10.80;8.10;;;;;;;0.51;100.00;151500.56;5021101;28;20441;-93
2024/01/28 05:10:48;;;;;;;14.07;9.87;;;;;;;0.55;100.00;151510.88;5037176;28;20435;-93
2024/01/28 05:13:15;;;;;;;12.50;8.90;;;;;;;0.56;100.00;151513.41;5020620;28;20464;-94
2024/01/28 05:15:43;;;;;;;13.70;9.90;;;;;;;0.59;100.00;151522.41;5020651;28;20450;-93
2024/01/28 05:18:10;;;;;;;15.80;11.07;;;;;;;0.65;100.00;151535.25;5037179;28;20489;-94
2024/01/28 05:20:36;;;;;;;12.53;9.63;;;;;;;0.62;100.00;151528.81;5020933;28;20446;-94
2024/01/28 05:23:04;;;;;;;12.43;10.03;;;;;;;0.60;100.00;151525.00;5037078;28;20457;-94
2024/01/28 05:25:32;;;;;;;14.63;10.23;;;;;;;0.64;100.00;151533.94;5020993;28;20514;-93
2024/01/28 05:27:59;;;;;;;17.07;10.17;;;;;;;0.65;100.00;151535.25;5020188;28;20507;-93
2024/01/28 05:30:25;;;;;;;13.37;10.80;;;;;;;0.65;100.00;151536.53;5020874;28;20438;-94
2024/01/28 05:32:53;;;;;;;14.67;9.97;;;;;;;0.70;100.00;151549.38;5020479;28;20447;-94
2024/01/28 05:35:20;;;;;;;18.43;11.07;;;;;;;0.73;100.00;151557.09;5037294;28;20431;-96
2024/01/28 05:37:47;;;;;;;15.67;11.20;;;;;;;0.76;100.00;151563.50;5020159;28;20550;-95
2024/01/28 05:40:14;;;;;;;12.93;10.40;;;;;;;0.80;100.00;151575.03;5036752;28;20443;-96
2024/01/28 05:42:40;;;;;;;10.50;8.73;;;;;;;0.82;100.00;151578.94;5037084;28;20462;-95
2024/01/28 05:45:07;;;;;;;10.10;9.03;;;;;;;0.85;100.00;151586.63;5020473;28;20441;-95
2024/01/28 05:47:34;;;;;;;12.90;10.23;;;;;;;0.84;100.00;151584.06;5036903;28;20443;-94
2024/01/28 05:50:02;;;;;;;19.03;9.83;;;;;;;0.83;100.00;151581.47;5019773;28;20489;-94
2024/01/28 05:52:29;;;;;;;16.67;11.00;;;;;;;0.83;100.00;151582.75;5020128;28;20457;-95
2024/01/28 05:54:56;;;;;;;13.10;9.23;;;;;;;0.78;100.00;151569.91;5020060;28;20541;-95
2024/01/28 05:57:23;;;;;;;12.20;8.97;;;;;;;0.70;100.00;151548.09;5019867;28;21039;-94
2024/01/28 05:59:49;;;;;;;14.80;10.17;;;;;;;0.65;100.00;151535.25;5019526;28;20442;-94
2024/01/28 06:02:16;;;;;;;11.23;8.03;;;;;;;0.56;100.00;151514.69;5019643;28;20849;-94
2024/01/28 06:04:43;;;;;;;11.43;9.70;;;;;;;0.52;100.00;151504.47;5019832;28;20446;-95
2024/01/28 06:07:11;;;;;;;14.93;9.57;;;;;;;0.52;100.00;151504.47;5019412;28;20443;-95
2024/01/28 06:09:37;;;;;;;12.00;9.60;;;;;;;0.51;100.00;151500.56;5019678;28;20434;-94
2024/01/28 06:12:05;;;;;;;11.87;9.20;;;;;;;0.38;100.00;151467.19;5019462;28;20470;-95
2024/01/28 06:14:32;;;;;;;12.17;8.93;;;;;;;0.33;100.00;151454.38;5019305;28;20471;-94
2024/01/28 06:16:59;;;;;;;11.80;9.60;;;;;;;0.27;100.00;151438.97;5036050;28;20434;-94
2024/01/28 06:19:26;;;;;;;14.33;9.93;;;;;;;0.26;100.00;151436.41;5035808;28;20481;-94
2024/01/28 06:21:53;;;;;;;12.80;9.73;;;;;;;0.23;100.00;151430.00;5035961;28;20445;-96
2024/01/28 06:24:21;;;;;;;12.93;9.47;;;;;;;0.23;100.00;151428.72;5036179;28;20458;-96
2024/01/28 06:26:48;;;;;;;11.90;9.30;;;;;;;0.23;100.00;151428.72;5032638;28;20805;-96
2024/01/28 06:29:14;;;;;;;16.30;10.00;;;;;;;0.24;100.00;151431.28;5037194;28;20523;-96
2024/01/28 06:31:41;;;;;;;11.03;8.13;;;;;;;0.26;100.00;151436.41;5029315;28;20431;-95
2024/01/28 06:34:07;;;;;;;14.27;9.67;;;;;;;0.27;100.00;151438.97;5019521;28;20427;-96
2024/01/28 06:36:34;;;;;;;13.33;9.43;;;;;;;0.22;100.00;151427.41;5019242;28;20438;-96
2024/01/28 06:39:01;;;;;;;12.90;9.83;;;;;;;0.22;100.00;151426.13;5035652;28;20463;-96
2024/01/28 06:41:29;;;;;;;14.23;9.10;;;;;;;0.24;100.00;151432.53;5019037;28;20449;-96
2024/01/28 06:43:55;;;;;;;15.80;8.50;;;;;;;0.28;100.00;151442.84;5019318;28;20438;-95
2024/01/28 06:46:22;;;;;;;12.80;9.20;;;;;;;0.29;100.00;151444.13;5019149;28;20529;-96
2024/01/28 06:48:49;;;;;;;12.57;8.50;;;;;;;0.28;100.00;151441.53;5019332;28;20529;-96
2024/01/28 06:51:15;;;;;;;13.50;9.30;;;;;;;0.28;100.00;151441.53;5018932;28;20439;-96
2024/01/28 06:53:44;;;;;;;14.00;9.40;;;;;;;0.26;100.00;151436.41;5018744;28;20539;-94
2024/01/28 06:56:10;;;;;;;13.97;9.67;;;;;;;0.26;100.00;151436.41;5007952;28;20458;-93
2024/01/28 06:58:40;;;;;;;10.57;9.47;;;;;;;0.24;100.00;151431.28;5034483;28;20910;-95
2024/01/28 07:01:10;;;;;;;12.33;9.63;;;;;;;0.23;100.00;151428.72;5018333;28;20497;-94
2024/01/28 07:03:39;;;;;;;11.50;8.57;;;;;;;0.26;100.00;151437.72;5015213;28;20432;-95
2024/01/28 07:06:06;;;;;;;13.97;9.60;;;;;;;0.32;100.00;151451.84;5015006;28;20489;-95
2024/01/28 07:08:34;;;;;;;12.63;9.47;;;;;;;0.40;100.00;151472.31;5024127;28;20473;-95
2024/01/28 07:11:01;;;;;;;11.40;9.13;;;;;;;0.44;100.00;151482.63;5039377;28;20431;-95
2024/01/28 07:13:27;;;;;;;12.83;8.67;;;;;;;0.40;100.00;151473.63;5049568;28;20484;-93
2024/01/28 07:15:55;;;;;;;11.97;9.37;;;;;;;0.42;100.00;151477.50;5018468;28;20925;-95
2024/01/28 07:18:22;;;;;;;13.57;10.20;;;;;;;0.50;100.00;151499.28;5018355;28;20490;-95
2024/01/28 07:20:49;;;;;;;15.57;10.50;;;;;;;0.56;100.00;151514.69;5054832;28;20859;-95
2024/01/28 07:23:15;;;;;;;14.50;9.70;;;;;;;0.65;100.00;151536.53;5035041;28;20451;-95
2024/01/28 07:25:42;;;;;;;13.07;9.87;;;;;;;0.78;100.00;151568.63;5034559;28;20449;-95
2024/01/28 07:31:01;;;;;;;15.40;10.57;;;;;;;1.08;100.00;151647.00;5018896;28;20526;-95
2024/01/28 07:33:27;;;;;;;15.40;11.50;;;;;;;1.39;100.00;151724.03;5017781;28;20467;-95
2024/01/28 07:35:54;;;;;;;16.03;12.40;;;;;;;1.96;100.00;151869.28;5017822;28;20482;-96
2024/01/28 07:38:21;;;;;;;19.67;14.33;;;;;;;2.61;100.00;152035.13;5017204;28;20490;-95
2024/01/28 07:40:47;;;;;;;17.73;13.20;;;;;;;3.13;100.00;152167.63;5018091;28;20419;-95
2024/01/28 07:43:14;;;;;;;21.37;15.23;;;;;;;3.53;100.00;152271.88;5034440;28;20462;-96
2024/01/28 07:45:42;;;;;;;18.13;15.20;;;;;;;3.52;100.00;152269.28;5018118;28;20447;-96
2024/01/28 07:48:10;;;;;;;16.40;13.47;;;;;;;3.80;100.00;152338.81;5013918;28;20855;-96
2024/01/28 07:50:37;;;;;;;18.87;13.30;;;;;;;4.41;100.00;152494.66;5030813;28;20459;-95
2024/01/28 07:53:04;;;;;;;17.13;13.20;;;;;;;5.19;100.00;152694.41;5014024;28;20460;-95
2024/01/28 07:55:31;;;;;;;16.40;11.83;;;;;;;5.50;95.16;152775.63;5014803;28;20460;-95
2024/01/28 08:03:00;;;;;;;12.00;9.17;;;;;;;4.42;91.43;152498.50;5032063;28;20435;-96
2024/01/28 08:05:29;;;;;;;11.60;9.07;;;;;;;3.78;93.95;152333.69;4998094;28;20455;-95
2024/01/28 08:07:56;;;;;;;10.80;9.27;;;;;;;3.38;96.12;152233.28;5014227;28;20921;-95
2024/01/28 08:10:24;;;;;;;10.57;9.43;;;;;;;3.08;97.44;152156.06;5030609;28;20530;-95
2024/01/28 08:12:50;;;;;;;10.90;9.77;;;;;;;2.89;99.18;152107.16;5046863;28;20899;-95
2024/01/28 08:15:19;;;;;;;13.20;10.07;;;;;;;2.77;100.00;152077.59;4997180;28;20499;-95
2024/01/28 08:17:48;;;;;;;12.07;10.10;;;;;;;2.64;100.00;152042.84;5014377;28;20961;-96
2024/01/28 08:20:15;;;;;;;13.13;10.07;;;;;;;2.53;100.00;152015.84;5014748;28;20436;-95
2024/01/28 08:22:43;;;;;;;12.17;9.37;;;;;;;2.45;100.00;151996.56;4998597;28;21328;-95
2024/01/28 08:25:11;;;;;;;11.10;9.90;;;;;;;2.40;100.00;151983.72;5014549;28;20451;-96
2024/01/28 08:27:38;;;;;;;11.60;9.47;;;;;;;2.35;100.00;151970.84;5045387;28;20833;-95
2024/01/28 08:30:06;;;;;;;14.03;10.00;;;;;;;2.33;100.00;151965.66;5033574;28;20529;-96
2024/01/28 08:32:32;;;;;;;14.90;10.53;;;;;;;2.35;100.00;151970.84;5017102;28;20450;-96
2024/01/28 08:34:59;;;;;;;11.60;9.37;;;;;;;2.37;100.00;151976.00;5033398;28;20437;-96
2024/01/28 08:37:26;;;;;;;12.00;9.63;;;;;;;2.36;100.00;151973.41;5016815;28;20463;-96
2024/01/28 08:39:54;;;;;;;12.80;10.37;;;;;;;2.35;100.00;151970.84;5033183;28;20909;-96
2024/01/28 08:42:21;;;;;;;14.03;10.97;;;;;;;2.37;100.00;151974.69;5033475;28;20521;-96
2024/01/28 08:44:48;;;;;;;14.13;10.97;;;;;;;2.37;100.00;151976.00;5033865;28;20446;-96
2024/01/28 08:47:15;;;;;;;12.60;10.20;;;;;;;2.39;100.00;151981.13;5017247;28;20451;-96
2024/01/28 08:49:41;;;;;;;12.20;10.67;;;;;;;2.41;100.00;151986.25;5017208;28;20567;-95
2024/01/28 08:52:08;;;;;;;12.37;10.87;;;;;;;2.45;100.00;151995.28;5036144;28;20520;-95
2024/01/28 08:54:36;;;;;;;11.47;10.10;;;;;;;2.52;100.00;152011.97;5030025;28;20478;-94
2024/01/28 08:57:05;;;;;;;12.67;10.00;;;;;;;2.60;100.00;152033.84;5031560;28;20824;-93
2024/01/28 08:59:32;;;;;;;14.50;9.93;;;;;;;2.68;100.00;152053.13;5031972;28;20541;-93
2024/01/28 09:01:59;;;;;;;10.90;9.23;;;;;;;2.71;100.00;152060.84;5027638;28;20554;-93
2024/01/28 09:04:26;;;;;;;13.20;9.50;;;;;;;2.75;100.00;152072.47;5021194;28;20509;-91
2024/01/28 09:06:52;;;;;;;11.90;10.00;;;;;;;2.79;100.00;152082.72;5028962;28;20440;-91
2024/01/28 09:09:19;;;;;;;11.20;8.90;;;;;;;2.91;100.00;152112.34;5013755;28;20458;-90
2024/01/28 09:11:46;;;;;;;13.07;10.60;;;;;;;3.09;100.00;152158.66;5025363;28;20463;-90
2024/01/28 09:14:14;;;;;;;12.70;9.70;;;;;;;3.28;100.00;152206.25;5036130;28;20475;-90
2024/01/28 09:16:40;;;;;;;12.30;10.83;;;;;;;3.31;100.00;152215.22;5028557;28;20447;-91
2024/01/28 09:19:07;;;;;;;18.90;13.13;;;;;;;3.32;100.00;152216.53;5048771;28;20481;-91
2024/01/28 09:21:33;;;;;;;15.20;13.53;;;;;;;3.29;100.00;152210.09;5045129;28;20463;-91
2024/01/28 09:24:00;;;;;;;16.37;13.80;;;;;;;3.26;100.00;152201.06;5037947;28;20524;-91
2024/01/28 09:26:26;;;;;;;14.13;12.67;;;;;;;3.25;100.00;152199.81;5028418;28;20470;-90
2024/01/28 09:29:01;;;;;;;14.73;12.40;;;;;;;3.25;100.00;152199.81;5030188;28;20459;-90
2024/01/28 09:31:34;;;;;;;14.80;12.00;;;;;;;3.24;100.00;152197.22;5021851;28;20458;-91
2024/01/28 09:34:13;;;;;;;15.40;13.47;;;;;;;3.21;100.00;152189.50;5019645;28;20551;-91
2024/01/28 09:36:59;;;;;;;15.80;12.63;;;;;;;3.23;100.00;152194.63;5027190;28;20521;-90
2024/01/28 09:39:39;;;;;;;14.63;12.27;;;;;;;3.29;100.00;152210.09;5038356;28;20578;-92
2024/01/28 09:42:24;;;;;;;14.97;11.60;;;;;;;3.28;100.00;152207.56;5029650;28;20489;-92
2024/01/28 09:45:06;;;;;;;15.13;11.93;;;;;;;3.31;100.00;152215.22;5023011;28;20474;-93
2024/01/28 09:47:54;;;;;;;14.00;10.70;;;;;;;3.32;100.00;152217.81;5026412;28;20471;-93
2024/01/28 09:50:36;;;;;;;14.30;11.80;;;;;;;3.33;100.00;152219.13;5042567;28;20451;-93
2024/01/28 09:53:18;;;;;;;13.93;12.37;;;;;;;3.30;100.00;152212.69;5034336;28;20560;-93
2024/01/28 09:55:51;;;;;;;19.00;12.37;;;;;;;3.42;100.00;152243.56;5012701;28;21073;-77
2024/01/28 09:58:18;;;;;;;12.80;11.40;;;;;;;3.54;100.00;152274.47;5028738;28;20501;-77
2024/01/28 10:03:55;;;;;;;14.13;10.40;;;;;;;3.76;100.00;152328.53;5005485;28;20931;-78
2024/01/28 10:06:21;;;;;;;11.53;10.40;;;;;;;3.78;100.00;152333.69;5028209;28;20458;-78
2024/01/28 10:08:48;;;;;;;12.47;10.63;;;;;;;3.82;100.00;152345.25;5028438;28;20543;-78
2024/01/28 10:11:15;;;;;;;13.03;10.33;;;;;;;3.82;100.00;152345.25;5038365;28;20526;-78
2024/01/28 10:13:45;;;;;;;13.20;11.80;;;;;;;3.82;100.00;152345.25;5040340;28;20540;-78
2024/01/28 10:16:12;;;;;;;15.83;12.37;;;;;;;3.81;100.00;152341.41;5026806;28;20454;-77
2024/01/28 10:18:38;;;;;;;14.17;11.70;;;;;;;3.80;100.00;152338.81;5041971;28;20460;-76
2024/01/28 10:21:06;;;;;;;13.50;11.20;;;;;;;3.80;100.00;152338.81;5043172;28;20443;-76
2024/01/28 10:23:37;;;;;;;13.80;10.47;;;;;;;3.85;100.00;152351.69;5029093;28;21003;-76
2024/01/28 10:26:08;;;;;;;14.20;11.20;;;;;;;3.87;100.00;152356.81;5037929;28;20440;-76
2024/01/28 10:28:38;;;;;;;14.03;10.30;;;;;;;3.89;100.00;152362.00;5038365;28;20871;-76
2024/01/28 10:31:05;;;;;;;10.97;9.30;;;;;;;3.91;100.00;152367.16;5020554;28;20436;-76
2024/01/28 10:33:31;;;;;;;11.60;9.87;;;;;;;3.94;100.00;152374.88;5038958;28;20458;-76
2024/01/28 10:36:01;;;;;;;13.37;8.73;;;;;;;3.97;100.00;152382.63;5019714;28;20460;-76
2024/01/28 10:38:32;;;;;;;11.07;9.43;;;;;;;3.98;100.00;152385.16;5035260;28;20454;-76
2024/01/28 10:41:00;;;;;;;10.10;8.90;;;;;;;4.01;100.00;152392.91;5039008;28;20506;-76
2024/01/28 10:43:27;;;;;;;10.10;8.00;;;;;;;4.05;100.00;152403.22;5040133;28;20439;-76
2024/01/28 10:45:56;;;;;;;11.33;8.03;;;;;;;4.10;100.00;152417.34;5031704;28;20455;-78
2024/01/28 10:48:24;;;;;;;9.33;7.27;;;;;;;4.15;100.00;152430.28;5041112;28;20505;-76
2024/01/28 10:50:51;;;;;;;7.97;7.10;;;;;;;4.19;100.00;152440.56;5038522;28;20912;-78
2024/01/28 10:53:19;;;;;;;7.93;6.47;;;;;;;4.25;99.88;152454.72;5036641;28;20848;-77
2024/01/28 10:55:47;;;;;;;7.90;7.07;;;;;;;4.36;98.88;152483.06;5040185;28;20483;-76
2024/01/28 10:58:13;;;;;;;8.23;7.30;;;;;;;4.52;97.18;152524.28;5029094;28;20451;-76
2024/01/28 11:00:41;;;;;;;6.13;5.53;;;;;;;4.71;95.36;152571.97;5025215;28;20490;-76
2024/01/28 11:03:18;;;;;;;8.80;6.07;;;;;;;4.85;91.93;152608.03;5041248;28;20442;-78
2024/01/28 11:05:46;;;;;;;8.33;5.63;;;;;;;5.01;89.50;152649.25;5036237;28;20479;-77
2024/01/28 11:08:12;;;;;;;6.00;4.53;;;;;;;5.19;87.08;152695.66;5041564;28;20446;-77
2024/01/28 11:10:39;;;;;;;7.30;5.67;;;;;;;5.39;84.66;152747.25;5041286;28;20447;-77
2024/01/28 11:13:07;;;;;;;7.70;5.40;;;;;;;5.56;82.08;152789.75;5042151;28;20492;-77
2024/01/28 11:15:33;;;;;;;6.63;5.47;;;;;;;5.76;80.10;152841.38;5028424;28;20475;-77
2024/01/28 11:18:01;;;;;;;5.20;4.70;;;;;;;5.91;79.24;152878.81;5042470;28;20500;-77
2024/01/28 11:20:30;;;;;;;5.83;4.40;;;;;;;5.84;78.49;152860.72;5030286;28;20564;-77
2024/01/28 11:22:58;;;;;;;6.67;4.50;;;;;;;5.80;77.85;152850.44;5042202;28;21241;-77
2024/01/28 11:25:26;;;;;;;5.80;4.70;;;;;;;5.74;78.73;152834.94;5026611;28;20443;-77
2024/01/28 11:27:58;;;;;;;4.33;3.93;;;;;;;5.67;78.56;152818.16;5025973;28;20496;-77
2024/01/28 11:30:29;;;;;;;3.90;3.57;;;;;;;5.69;78.04;152822.03;5039726;28;20458;-77